Time;durP1;ratioP1;P1;durP2;ratioP2;P2;SDS_P1;SDS_P2;PMS_P1;PMS_P2;Temp;Humidity;BMP_temperature;BMP_pressure;BME280_temperature;BME280_humidity;BME280_pressure;Samples;Min_cycle;Max_cycle;Signal;HPM_P1;HPM_P2
2022/04/22 00:00:09;;;;;;;5.23;4.00;;;9.20;99.90;;;;;;5031627;28;20202;-85
2022/04/22 00:02:37;;;;;;;5.73;3.80;;;9.10;99.90;;;;;;5017497;28;20189;-86
2022/04/22 00:05:04;;;;;;;4.70;3.77;;;9.10;99.90;;;;;;5019202;28;20205;-85
2022/04/22 00:07:30;;;;;;;4.83;4.13;;;9.10;99.90;;;;;;5035958;28;20209;-85
2022/04/22 00:09:56;;;;;;;4.57;3.70;;;9.10;99.90;;;;;;5018989;28;20217;-86
2022/04/22 00:12:22;;;;;;;6.00;4.13;;;9.10;99.90;;;;;;5019165;28;20201;-86
2022/04/22 00:14:48;;;;;;;4.67;4.27;;;9.10;99.90;;;;;;5019040;28;20582;-85
2022/04/22 00:17:15;;;;;;;6.87;3.80;;;9.00;99.90;;;;;;5035761;28;20210;-85
2022/04/22 00:19:41;;;;;;;4.53;4.13;;;9.00;99.90;;;;;;5018886;28;20301;-85
2022/04/22 00:22:07;;;;;;;4.10;3.70;;;8.90;99.90;;;;;;5019113;28;20265;-85
2022/04/22 00:24:33;;;;;;;4.77;3.67;;;8.90;99.90;;;;;;5018718;28;20297;-85
2022/04/22 00:26:59;;;;;;;4.47;3.77;;;8.90;99.90;;;;;;5018822;28;20178;-85
2022/04/22 00:29:25;;;;;;;4.03;3.63;;;8.80;99.90;;;;;;5019055;28;20225;-85
2022/04/22 00:31:50;;;;;;;6.30;4.90;;;8.70;99.90;;;;;;5019290;28;20643;-85
2022/04/22 00:34:16;;;;;;;5.00;4.40;;;8.70;99.90;;;;;;5018728;28;20250;-85
2022/04/22 00:36:42;;;;;;;5.10;4.30;;;8.60;99.90;;;;;;5019092;28;20178;-85
2022/04/22 00:39:08;;;;;;;4.20;3.80;;;8.50;99.90;;;;;;5034868;28;20182;-86
2022/04/22 00:41:34;;;;;;;4.83;4.33;;;8.40;99.90;;;;;;5018546;28;20182;-86
2022/04/22 00:43:59;;;;;;;5.10;3.97;;;8.40;99.90;;;;;;5018551;28;20194;-85
2022/04/22 00:46:25;;;;;;;4.70;4.20;;;8.40;99.90;;;;;;5018959;28;20212;-85
2022/04/22 00:48:51;;;;;;;5.67;4.20;;;8.30;99.90;;;;;;5018264;28;20280;-86
2022/04/22 00:51:18;;;;;;;5.43;4.87;;;8.30;99.90;;;;;;5018541;28;20187;-85
2022/04/22 00:53:49;;;;;;;6.93;4.63;;;8.20;99.90;;;;;;5018171;28;20736;-85
2022/04/22 00:56:15;;;;;;;7.17;4.37;;;8.20;99.90;;;;;;5018409;28;20263;-85
2022/04/22 00:58:45;;;;;;;5.37;4.67;;;8.10;99.90;;;;;;5018286;28;20635;-85
2022/04/22 01:01:11;;;;;;;4.80;4.30;;;8.00;99.90;;;;;;5018045;28;20213;-85
2022/04/22 01:09:47;;;;;;;5.50;4.87;;;8.10;99.90;;;;;;5034492;28;20169;-85
2022/04/22 01:12:14;;;;;;;6.67;4.83;;;8.00;99.90;;;;;;5017733;28;20573;-85
2022/04/22 01:14:41;;;;;;;5.13;4.63;;;7.90;99.90;;;;;;5017090;28;20221;-85
2022/04/22 01:17:08;;;;;;;6.03;4.63;;;7.80;99.90;;;;;;5018001;28;20182;-85
2022/04/22 01:19:34;;;;;;;5.80;5.17;;;7.80;99.90;;;;;;5017755;28;20205;-85
2022/04/22 01:22:00;;;;;;;8.40;5.17;;;7.80;99.90;;;;;;5018014;28;20201;-86
2022/04/22 01:24:27;;;;;;;5.37;4.60;;;7.80;99.90;;;;;;5017809;28;20202;-85
2022/04/22 01:26:57;;;;;;;6.40;5.27;;;7.80;99.90;;;;;;5017989;28;20178;-85
2022/04/22 01:29:24;;;;;;;7.53;4.77;;;7.80;99.90;;;;;;5017741;28;20248;-85
2022/04/22 01:31:50;;;;;;;5.80;4.90;;;7.90;99.90;;;;;;5034066;28;20273;-86
2022/04/22 01:34:16;;;;;;;5.60;4.80;;;7.90;99.90;;;;;;5034224;28;20709;-85
2022/04/22 01:36:42;;;;;;;6.23;4.90;;;7.90;99.90;;;;;;5017654;28;20186;-85
2022/04/22 01:39:08;;;;;;;6.80;4.40;;;7.90;99.90;;;;;;5017814;28;20293;-86
2022/04/22 01:41:34;;;;;;;5.17;4.67;;;7.90;99.90;;;;;;5034218;28;20253;-85
2022/04/22 01:44:00;;;;;;;5.20;4.70;;;7.90;99.90;;;;;;5017397;28;20195;-85
2022/04/22 01:46:26;;;;;;;7.00;4.73;;;7.80;99.90;;;;;;5017441;28;20182;-85
2022/04/22 01:48:52;;;;;;;5.87;4.97;;;7.70;99.90;;;;;;5033799;28;20189;-86
2022/04/22 01:51:18;;;;;;;5.53;5.00;;;7.60;99.90;;;;;;5017665;28;20178;-85
2022/04/22 01:53:44;;;;;;;7.23;5.20;;;7.60;99.90;;;;;;5017481;28;20296;-85
2022/04/22 01:56:10;;;;;;;6.83;5.27;;;7.50;99.90;;;;;;5017497;28;20181;-85
2022/04/22 01:58:36;;;;;;;6.10;5.43;;;7.50;99.90;;;;;;5033549;28;20561;-85
2022/04/22 02:01:02;;;;;;;6.30;5.13;;;7.40;99.90;;;;;;5016939;28;20210;-85
2022/04/22 02:03:47;;;;;;;7.40;4.93;;;7.40;99.90;;;;;;5017068;28;20202;-86
2022/04/22 02:06:13;;;;;;;5.60;4.27;;;7.40;99.90;;;;;;5017088;28;20170;-85
2022/04/22 02:08:38;;;;;;;5.70;5.10;;;7.30;99.90;;;;;;5016875;28;20181;-85
2022/04/22 02:11:05;;;;;;;5.90;4.97;;;7.30;99.90;;;;;;5016748;28;20185;-85
2022/04/22 02:13:36;;;;;;;6.10;4.93;;;7.20;99.90;;;;;;5016721;28;20212;-85
2022/04/22 02:16:03;;;;;;;7.40;5.27;;;7.20;99.90;;;;;;5033626;28;20181;-85
2022/04/22 02:18:30;;;;;;;6.33;5.37;;;7.10;99.90;;;;;;5017337;28;20186;-85
2022/04/22 02:25:02;;;;;;;7.30;5.40;;;6.90;99.90;;;;;;5034110;28;20696;-85
2022/04/22 02:30:13;;;;;;;5.87;4.80;;;6.90;99.90;;;;;;5033179;28;20180;-85
2022/04/22 02:32:38;;;;;;;6.60;5.50;;;6.90;99.90;;;;;;5033398;28;20776;-85
2022/04/22 02:35:05;;;;;;;6.17;5.00;;;6.80;99.90;;;;;;5016555;28;20209;-85
2022/04/22 02:37:30;;;;;;;8.60;5.70;;;6.80;99.90;;;;;;5016986;28;20178;-85
2022/04/22 02:39:59;;;;;;;6.37;5.27;;;6.80;99.90;;;;;;5015904;28;20215;-85
2022/04/22 02:45:27;;;;;;;7.07;6.23;;;6.70;99.90;;;;;;5032815;28;20208;-85
2022/04/22 02:47:55;;;;;;;7.63;6.07;;;6.60;99.90;;;;;;5032999;28;20172;-85
2022/04/22 02:50:21;;;;;;;9.10;6.00;;;6.50;99.90;;;;;;5016287;28;20189;-85
2022/04/22 02:52:47;;;;;;;6.83;5.63;;;6.40;99.90;;;;;;5032732;28;20185;-85
2022/04/22 02:55:13;;;;;;;6.80;5.83;;;6.30;99.90;;;;;;5032475;28;20633;-85
2022/04/22 02:57:40;;;;;;;7.03;5.20;;;6.20;99.90;;;;;;5016310;28;20184;-85
2022/04/22 03:00:06;;;;;;;6.77;5.60;;;6.10;99.90;;;;;;5032463;28;20208;-85
2022/04/22 03:02:32;;;;;;;6.83;5.67;;;6.00;99.90;;;;;;5016089;28;20267;-85
2022/04/22 03:04:58;;;;;;;8.03;6.03;;;6.00;99.90;;;;;;5015975;28;20207;-85
2022/04/22 03:07:24;;;;;;;6.77;5.57;;;6.00;99.90;;;;;;5015838;28;20189;-85
2022/04/22 03:09:50;;;;;;;6.47;5.33;;;5.90;99.90;;;;;;5015688;28;20256;-85
2022/04/22 03:12:16;;;;;;;7.30;5.67;;;5.90;99.90;;;;;;5032391;28;20260;-85
2022/04/22 03:14:44;;;;;;;7.37;6.20;;;5.80;99.90;;;;;;5016041;28;20211;-85
2022/04/22 03:17:09;;;;;;;7.73;5.47;;;5.70;99.90;;;;;;5016004;28;20251;-85
2022/04/22 03:19:36;;;;;;;6.67;5.57;;;5.60;99.90;;;;;;5015569;28;20281;-85
2022/04/22 03:22:02;;;;;;;6.80;5.77;;;5.60;99.90;;;;;;5015793;28;20174;-85
2022/04/22 03:24:28;;;;;;;6.13;5.37;;;5.60;99.90;;;;;;5032219;28;20201;-85
2022/04/22 03:26:54;;;;;;;7.33;5.50;;;5.60;99.90;;;;;;5032498;28;20187;-85
2022/04/22 03:29:20;;;;;;;7.20;5.70;;;5.60;99.90;;;;;;5015476;28;20185;-85
2022/04/22 03:31:45;;;;;;;8.60;6.53;;;5.60;99.90;;;;;;5015857;28;20182;-85
2022/04/22 03:34:11;;;;;;;7.73;5.67;;;5.70;99.90;;;;;;5015572;28;20199;-85
2022/04/22 03:36:37;;;;;;;8.27;6.03;;;5.70;99.90;;;;;;5015585;28;20182;-85
2022/04/22 03:39:03;;;;;;;7.13;5.77;;;5.70;99.90;;;;;;5015357;28;20186;-85
2022/04/22 03:41:29;;;;;;;8.77;5.97;;;5.70;99.90;;;;;;5032150;28;20204;-85
2022/04/22 03:43:55;;;;;;;8.87;6.10;;;5.80;99.90;;;;;;5015754;28;20194;-85
2022/04/22 03:46:21;;;;;;;8.10;5.70;;;5.80;99.90;;;;;;5032276;28;20183;-85
2022/04/22 03:48:47;;;;;;;7.80;5.77;;;5.70;99.90;;;;;;5031836;28;20712;-85
2022/04/22 03:51:13;;;;;;;6.37;5.57;;;5.80;99.90;;;;;;5015303;28;20184;-85
2022/04/22 03:53:40;;;;;;;6.27;5.67;;;5.80;99.90;;;;;;5015133;28;20675;-85
2022/04/22 03:58:51;;;;;;;6.10;5.50;;;5.70;99.90;;;;;;5032022;28;20170;-85
2022/04/22 04:05:03;;;;;;;9.43;5.87;;;5.70;99.90;;;;;;5032969;28;20194;-85
2022/04/22 04:07:29;;;;;;;6.67;5.57;;;5.70;99.90;;;;;;5015176;28;20183;-85
2022/04/22 04:18:08;;;;;;;8.83;6.77;;;5.50;99.90;;;;;;5031527;28;20171;-85
2022/04/22 04:23:18;;;;;;;8.27;6.93;;;5.40;99.90;;;;;;5031300;28;20171;-85
2022/04/22 04:25:50;;;;;;;7.70;6.53;;;5.30;99.90;;;;;;5014888;28;20185;-85
2022/04/22 04:28:23;;;;;;;7.83;6.50;;;5.30;99.90;;;;;;5030863;28;20174;-85
2022/04/22 04:30:48;;;;;;;7.73;6.07;;;5.20;99.90;;;;;;5012822;28;20175;-85
2022/04/22 04:33:14;;;;;;;9.07;6.00;;;5.10;99.90;;;;;;5031215;28;20233;-85
2022/04/22 04:35:44;;;;;;;7.83;6.37;;;5.10;99.90;;;;;;5031382;28;20194;-85
2022/04/22 04:38:10;;;;;;;9.13;7.53;;;5.00;99.90;;;;;;5015050;28;20187;-85
2022/04/22 04:40:36;;;;;;;9.00;6.90;;;5.00;99.90;;;;;;5031312;28;20238;-85
2022/04/22 04:43:05;;;;;;;8.60;6.93;;;5.00;99.90;;;;;;5014960;28;20210;-85
2022/04/22 04:45:32;;;;;;;9.50;6.17;;;5.00;99.90;;;;;;5014851;28;20195;-85
2022/04/22 04:47:58;;;;;;;9.47;7.67;;;5.00;99.90;;;;;;5014981;28;20241;-85
2022/04/22 04:50:25;;;;;;;8.50;7.17;;;5.00;99.90;;;;;;5034159;28;20235;-85
2022/04/22 04:52:51;;;;;;;8.77;6.77;;;5.00;99.90;;;;;;5018162;28;20269;-85
2022/04/22 04:55:17;;;;;;;8.50;6.63;;;5.00;99.90;;;;;;5018001;28;20210;-85
2022/04/22 04:57:43;;;;;;;7.47;6.50;;;5.10;99.90;;;;;;5018228;28;20183;-85
2022/04/22 05:00:10;;;;;;;10.13;6.93;;;5.10;99.90;;;;;;5018072;28;20219;-85
2022/04/22 05:03:10;;;;;;;8.33;7.10;;;5.10;99.90;;;;;;5017780;28;20185;-85
2022/04/22 05:05:36;;;;;;;8.77;6.60;;;5.10;99.90;;;;;;5018255;28;20191;-85
2022/04/22 05:08:04;;;;;;;8.73;6.73;;;5.10;99.90;;;;;;5017053;28;20181;-85
2022/04/22 05:10:31;;;;;;;8.17;6.77;;;5.10;99.90;;;;;;5017394;28;20186;-85
2022/04/22 05:12:59;;;;;;;9.03;6.47;;;5.20;99.90;;;;;;5018460;28;20189;-85
2022/04/22 05:15:26;;;;;;;7.87;6.40;;;5.30;99.90;;;;;;5018216;28;20217;-85
2022/04/22 05:17:54;;;;;;;10.03;6.80;;;5.30;99.90;;;;;;5017937;28;20189;-85
2022/04/22 05:20:25;;;;;;;9.10;6.80;;;5.40;99.90;;;;;;5017978;28;20226;-85
2022/04/22 05:22:52;;;;;;;8.10;6.47;;;5.40;99.90;;;;;;5017993;28;20183;-85
2022/04/22 05:25:18;;;;;;;7.83;6.43;;;5.40;99.90;;;;;;5017762;28;20217;-85
2022/04/22 05:27:44;;;;;;;8.57;6.57;;;5.50;99.90;;;;;;5019049;28;20233;-85
2022/04/22 05:33:16;;;;;;;9.67;6.80;;;5.70;99.90;;;;;;4979597;28;20210;-85
2022/04/22 05:35:45;;;;;;;9.77;6.60;;;5.80;99.90;;;;;;4992762;28;20192;-85
2022/04/22 05:38:12;;;;;;;9.37;6.80;;;5.80;99.90;;;;;;5013774;28;20187;-85
2022/04/22 05:40:38;;;;;;;19.67;7.53;;;5.80;99.90;;;;;;5017737;28;20669;-85
2022/04/22 05:43:08;;;;;;;9.30;6.70;;;5.90;99.90;;;;;;5018057;28;20179;-85
2022/04/22 05:45:36;;;;;;;8.77;6.40;;;5.90;99.90;;;;;;5034211;28;20171;-85
2022/04/22 05:48:03;;;;;;;10.90;6.87;;;6.00;99.90;;;;;;5017455;28;20629;-85
2022/04/22 05:50:29;;;;;;;10.60;7.27;;;6.20;99.90;;;;;;5017425;28;20190;-85
2022/04/22 05:52:56;;;;;;;9.03;7.33;;;6.20;99.90;;;;;;5017357;28;20194;-85
2022/04/22 05:55:27;;;;;;;9.60;7.90;;;6.30;99.90;;;;;;5017318;28;20199;-86
2022/04/22 05:57:54;;;;;;;8.37;6.87;;;6.40;99.90;;;;;;5017125;28;20206;-85
2022/04/22 06:00:24;;;;;;;9.10;7.03;;;6.50;99.90;;;;;;5033317;28;20204;-85
2022/04/22 06:02:50;;;;;;;11.80;7.63;;;6.50;99.90;;;;;;5017534;28;20181;-85
2022/04/22 06:05:18;;;;;;;9.10;6.30;;;6.40;99.90;;;;;;5035224;28;20195;-86
2022/04/22 06:07:45;;;;;;;10.40;7.60;;;6.50;99.90;;;;;;5032899;28;20183;-85
2022/04/22 06:12:58;;;;;;;10.27;7.07;;;6.70;99.90;;;;;;5033485;28;20201;-85
2022/04/22 06:15:24;;;;;;;10.03;7.57;;;6.80;99.90;;;;;;5016865;28;20228;-85
2022/04/22 06:17:50;;;;;;;11.33;7.00;;;6.80;99.90;;;;;;5016797;28;20185;-85
2022/04/22 06:20:16;;;;;;;10.03;7.07;;;6.90;99.90;;;;;;5016721;28;20204;-86
2022/04/22 06:22:42;;;;;;;10.73;7.10;;;6.90;99.90;;;;;;5033271;28;20275;-86
2022/04/22 06:25:09;;;;;;;9.43;7.50;;;7.10;99.90;;;;;;5016566;28;20200;-86
2022/04/22 06:27:38;;;;;;;10.17;7.23;;;7.20;99.90;;;;;;5016505;28;20189;-86
2022/04/22 06:30:09;;;;;;;9.97;7.73;;;7.40;99.90;;;;;;5016606;28;20188;-86
2022/04/22 06:32:37;;;;;;;10.33;8.17;;;7.60;99.90;;;;;;5033251;28;20190;-86
2022/04/22 06:35:05;;;;;;;10.50;7.93;;;7.70;99.90;;;;;;5016507;28;20201;-86
2022/04/22 06:37:42;;;;;;;9.00;7.63;;;7.90;99.90;;;;;;5033386;28;20186;-86
2022/04/22 06:45:48;;;;;;;9.33;8.00;;;8.40;99.90;;;;;;5032955;28;20173;-86
2022/04/22 06:48:30;;;;;;;11.23;8.77;;;8.50;99.90;;;;;;5016385;28;20169;-86
2022/04/22 06:50:58;;;;;;;11.87;9.13;;;8.50;99.90;;;;;;5016534;28;20188;-86
2022/04/22 06:53:24;;;;;;;12.30;9.73;;;8.60;99.90;;;;;;5016571;28;20210;-86
2022/04/22 06:55:53;;;;;;;13.03;9.73;;;8.70;99.90;;;;;;5016249;28;20181;-86
2022/04/22 06:58:21;;;;;;;13.80;9.63;;;8.60;99.90;;;;;;5032823;28;20185;-86
2022/04/22 07:00:48;;;;;;;11.77;9.23;;;8.80;99.90;;;;;;5015809;28;20221;-86
2022/04/22 07:03:16;;;;;;;11.70;9.97;;;8.90;99.90;;;;;;5016066;28;20174;-86
2022/04/22 07:05:44;;;;;;;13.20;10.87;;;9.10;99.90;;;;;;5016250;28;20268;-86
2022/04/22 07:08:14;;;;;;;13.90;11.07;;;9.20;99.90;;;;;;5016643;28;20247;-86
2022/04/22 07:10:45;;;;;;;13.37;10.93;;;9.40;99.90;;;;;;5032390;28;20249;-86
2022/04/22 07:13:12;;;;;;;13.80;11.63;;;9.40;99.90;;;;;;5015212;28;20171;-86
2022/04/22 07:15:43;;;;;;;17.80;11.67;;;9.40;99.90;;;;;;5032322;28;20194;-86
2022/04/22 07:18:09;;;;;;;14.33;11.63;;;9.50;99.90;;;;;;5015894;28;20207;-86
2022/04/22 07:20:35;;;;;;;14.77;11.17;;;9.70;99.90;;;;;;5015527;28;20248;-86
2022/04/22 07:23:01;;;;;;;13.70;11.60;;;9.90;99.90;;;;;;5015755;28;20182;-86
2022/04/22 07:25:28;;;;;;;15.30;12.23;;;10.10;99.90;;;;;;5015418;28;20198;-86
2022/04/22 07:27:55;;;;;;;14.47;12.43;;;10.30;99.90;;;;;;5016153;28;20206;-86
2022/04/22 07:30:23;;;;;;;14.87;12.93;;;10.50;99.90;;;;;;5031803;28;20183;-85
2022/04/22 07:32:49;;;;;;;17.23;12.97;;;10.60;99.90;;;;;;5015738;28;20182;-86
2022/04/22 07:35:18;;;;;;;15.20;12.93;;;10.70;99.90;;;;;;5032013;28;20194;-86
2022/04/22 07:37:52;;;;;;;18.13;13.97;;;10.90;99.90;;;;;;5015628;28;20175;-86
2022/04/22 07:40:21;;;;;;;18.27;13.40;;;11.10;99.90;;;;;;5015302;28;20201;-86
2022/04/22 07:48:26;;;;;;;17.73;13.50;;;10.90;99.90;;;;;;5032320;28;20622;-86
2022/04/22 07:50:54;;;;;;;19.07;13.90;;;10.90;99.90;;;;;;5015857;28;20190;-86
2022/04/22 07:53:22;;;;;;;18.77;14.10;;;10.90;99.90;;;;;;5015716;28;20316;-86
2022/04/22 07:55:48;;;;;;;17.47;14.20;;;11.10;99.90;;;;;;5015450;28;20182;-86
2022/04/22 07:58:15;;;;;;;18.70;15.17;;;11.40;99.90;;;;;;5015516;28;20210;-86
2022/04/22 08:00:45;;;;;;;16.57;13.43;;;11.60;99.90;;;;;;5015009;28;20203;-86
2022/04/22 08:03:12;;;;;;;17.10;14.27;;;11.90;99.90;;;;;;5031907;28;20187;-86
2022/04/22 08:05:38;;;;;;;15.80;13.37;;;12.00;99.90;;;;;;5015234;28;20587;-86
2022/04/22 08:08:05;;;;;;;16.97;14.03;;;12.20;99.90;;;;;;5015440;28;20204;-86
2022/04/22 08:10:32;;;;;;;18.10;14.23;;;12.20;99.90;;;;;;5015529;28;20193;-86
2022/04/22 08:13:31;;;;;;;16.40;13.73;;;12.30;99.90;;;;;;5031818;28;20228;-86
2022/04/22 08:16:16;;;;;;;16.97;13.83;;;12.50;99.90;;;;;;5015515;28;20227;-86
2022/04/22 08:18:41;;;;;;;17.20;14.30;;;12.80;99.90;;;;;;5020250;28;20228;-87
2022/04/22 08:21:10;;;;;;;15.33;13.73;;;13.00;99.90;;;;;;5055069;28;20211;-86
2022/04/22 08:23:36;;;;;;;17.30;13.97;;;13.20;99.90;;;;;;5015510;28;20199;-86
2022/04/22 08:26:04;;;;;;;18.30;14.50;;;13.40;99.90;;;;;;5019536;28;20183;-86
2022/04/22 08:28:30;;;;;;;16.80;14.07;;;13.30;99.90;;;;;;5019082;28;20190;-86
2022/04/22 08:30:55;;;;;;;16.87;14.53;;;13.40;99.90;;;;;;5018842;28;20181;-86
2022/04/22 08:33:21;;;;;;;17.23;14.53;;;13.60;99.90;;;;;;5018903;28;20209;-86
2022/04/22 08:35:47;;;;;;;18.37;14.40;;;13.80;99.90;;;;;;5018612;28;20309;-86
2022/04/22 08:38:13;;;;;;;16.17;13.43;;;14.10;99.90;;;;;;5018206;28;20189;-86
2022/04/22 08:40:39;;;;;;;18.70;15.33;;;14.30;99.90;;;;;;5035006;28;20234;-86
2022/04/22 08:43:06;;;;;;;17.90;14.67;;;14.40;99.90;;;;;;5035163;28;20240;-86
2022/04/22 08:45:33;;;;;;;20.97;15.97;;;14.50;99.90;;;;;;5034950;28;20203;-86
2022/04/22 08:50:47;;;;;;;17.17;15.30;;;14.40;99.90;;;;;;5034956;28;20202;-86
2022/04/22 08:53:21;;;;;;;15.43;13.60;;;14.30;99.90;;;;;;5035221;28;20189;-86
2022/04/22 08:55:50;;;;;;;17.17;14.27;;;14.50;99.90;;;;;;5018651;28;20178;-86
2022/04/22 08:58:18;;;;;;;16.03;13.93;;;14.80;99.90;;;;;;5018501;28;20190;-86
2022/04/22 09:00:48;;;;;;;15.73;14.13;;;15.10;99.90;;;;;;5017976;28;20200;-86
2022/04/22 09:03:14;;;;;;;17.30;15.03;;;15.20;99.90;;;;;;5034718;28;20186;-86
2022/04/22 09:05:40;;;;;;;17.17;13.60;;;15.00;99.90;;;;;;5018427;28;20185;-86
2022/04/22 09:08:08;;;;;;;17.77;15.10;;;15.00;99.90;;;;;;5018668;28;20179;-86
2022/04/22 09:10:35;;;;;;;17.13;14.27;;;15.10;99.90;;;;;;5017940;28;20612;-86
2022/04/22 09:13:02;;;;;;;15.10;13.40;;;15.00;99.90;;;;;;5012387;28;20218;-86
2022/04/22 09:15:32;;;;;;;15.50;13.63;;;15.20;99.90;;;;;;5001625;28;20300;-86
2022/04/22 09:18:09;;;;;;;14.80;13.30;;;15.50;99.90;;;;;;5001585;28;20196;-86
2022/04/22 09:20:35;;;;;;;14.67;12.10;;;15.60;99.90;;;;;;5001496;28;20198;-86
2022/04/22 09:23:29;;;;;;;15.40;13.73;;;15.90;99.90;;;;;;5001610;28;20190;-86
2022/04/22 09:25:55;;;;;;;13.97;12.60;;;15.80;99.90;;;;;;5035790;28;20186;-86
2022/04/22 09:28:21;;;;;;;14.00;12.53;;;16.10;99.90;;;;;;5001568;28;20265;-86
2022/04/22 09:31:04;;;;;;;13.97;12.43;;;16.20;99.90;;;;;;5001175;28;20213;-86
2022/04/22 09:33:45;;;;;;;14.43;11.90;;;16.40;99.90;;;;;;5001320;28;20202;-87
2022/04/22 09:45:06;;;;;;;13.03;11.73;;;16.90;99.90;;;;;;5017588;28;20225;-86
2022/04/22 09:47:35;;;;;;;12.57;11.37;;;17.10;99.90;;;;;;5017504;28;20175;-86
2022/04/22 09:50:10;;;;;;;13.50;12.13;;;17.00;99.90;;;;;;5000871;28;20187;-86
2022/04/22 09:52:44;;;;;;;14.47;12.97;;;17.00;99.90;;;;;;5001320;28;20193;-86
2022/04/22 09:55:15;;;;;;;15.00;12.67;;;17.00;99.90;;;;;;5000898;28;20256;-86
2022/04/22 09:57:57;;;;;;;14.87;13.30;;;17.10;99.90;;;;;;5017564;28;20662;-86
2022/04/22 10:00:25;;;;;;;16.60;13.20;;;17.20;99.90;;;;;;5000686;28;20213;-86
2022/04/22 10:03:10;;;;;;;14.00;12.55;;;17.10;99.90;;;;;;5000992;28;20182;-87
2022/04/22 10:05:36;;;;;;;13.33;11.90;;;17.00;99.90;;;;;;5001248;28;20178;-86
2022/04/22 10:08:03;;;;;;;14.30;12.30;;;17.10;99.90;;;;;;5000776;28;20206;-86
2022/04/22 10:10:33;;;;;;;15.17;12.40;;;17.30;99.90;;;;;;5000845;28;20178;-86
2022/04/22 10:13:02;;;;;;;13.45;12.05;;;17.10;99.90;;;;;;5000645;28;20248;-86
2022/04/22 10:15:30;;;;;;;13.20;11.90;;;17.10;99.90;;;;;;5000681;28;20666;-86
2022/04/22 10:17:57;;;;;;;13.90;12.18;;;17.00;99.90;;;;;;5000827;28;20187;-86
2022/04/22 10:20:25;;;;;;;15.07;13.40;;;17.00;99.90;;;;;;5000329;28;20206;-86
2022/04/22 10:22:51;;;;;;;14.30;12.88;;;17.20;99.90;;;;;;5000395;28;20187;-86
2022/04/22 10:25:17;;;;;;;14.03;12.40;;;17.00;99.90;;;;;;5016747;28;20199;-86
2022/04/22 10:27:46;;;;;;;13.05;11.63;;;17.10;99.90;;;;;;5016730;28;20184;-86
2022/04/22 10:30:13;;;;;;;11.82;10.63;;;17.40;99.90;;;;;;5000093;28;20183;-86
2022/04/22 10:32:41;;;;;;;13.15;11.82;;;17.70;99.90;;;;;;5000309;28;20236;-86
2022/04/22 10:35:09;;;;;;;13.18;11.77;;;18.00;99.90;;;;;;5016442;28;20256;-86
2022/04/22 10:37:41;;;;;;;13.43;12.02;;;18.10;99.90;;;;;;5000166;28;20190;-86
2022/04/22 10:40:18;;;;;;;12.95;11.65;;;18.10;99.90;;;;;;5000156;28;20250;-86
2022/04/22 10:42:45;;;;;;;12.60;11.27;;;18.30;99.90;;;;;;4984212;28;20198;-86
2022/04/22 10:47:56;;;;;;;14.00;12.60;;;18.40;99.20;;;;;;5015810;28;20178;-87
2022/04/22 10:50:32;;;;;;;13.68;12.27;;;18.50;99.40;;;;;;5000241;28;20186;-86
2022/04/22 10:53:07;;;;;;;14.40;12.90;;;18.20;98.90;;;;;;5016328;28;20179;-86
2022/04/22 10:55:37;;;;;;;13.55;11.88;;;17.40;99.60;;;;;;5000186;28;20216;-86
2022/04/22 10:58:21;;;;;;;13.32;12.02;;;17.60;99.90;;;;;;5001246;28;20266;-87
2022/04/22 11:00:48;;;;;;;13.30;12.00;;;17.90;99.50;;;;;;5019250;28;20217;-86
2022/04/22 11:03:19;;;;;;;13.77;11.30;;;17.40;99.80;;;;;;5019135;28;20184;-86
2022/04/22 11:05:55;;;;;;;14.98;12.65;;;17.70;99.90;;;;;;5019361;28;20170;-86
2022/04/22 11:08:28;;;;;;;13.20;12.00;;;17.20;99.90;;;;;;5019257;28;20170;-86
2022/04/22 11:10:57;;;;;;;14.45;12.95;;;17.50;99.90;;;;;;5035654;28;20241;-87
2022/04/22 11:13:34;;;;;;;12.93;11.63;;;18.00;99.90;;;;;;5035660;28;20178;-87
2022/04/22 11:16:22;;;;;;;13.48;12.07;;;18.30;99.90;;;;;;5019224;28;20186;-86
2022/04/22 11:19:10;;;;;;;13.43;12.02;;;18.60;98.80;;;;;;5018997;28;20177;-87
2022/04/22 11:21:37;;;;;;;14.70;13.20;;;18.70;97.90;;;;;;5019180;28;20210;-86
2022/04/22 11:24:27;;;;;;;15.35;12.82;;;18.50;98.40;;;;;;5035443;28;20244;-86
2022/04/22 11:27:01;;;;;;;14.38;12.88;;;18.30;98.30;;;;;;5019003;28;20174;-86
2022/04/22 11:29:28;;;;;;;13.30;11.90;;;18.10;98.60;;;;;;5018722;28;20197;-87
2022/04/22 11:32:17;;;;;;;13.38;12.02;;;18.40;99.90;;;;;;5019311;28;20174;-86
2022/04/22 11:35:13;;;;;;;14.38;12.88;;;18.90;99.90;;;;;;5035554;28;20279;-86
2022/04/22 11:37:39;;;;;;;12.65;11.45;;;19.00;98.20;;;;;;5035351;28;20158;-87
2022/04/22 11:40:08;;;;;;;12.90;11.60;;;18.90;97.90;;;;;;5018682;28;20506;-87
2022/04/22 11:42:44;;;;;;;12.05;10.85;;;18.90;99.40;;;;;;5020418;28;20184;-87
2022/04/22 11:45:14;;;;;;;12.45;11.25;;;19.10;99.40;;;;;;5020381;28;20197;-86
2022/04/22 11:47:41;;;;;;;13.75;12.10;;;19.30;98.30;;;;;;5019439;28;20181;-87
2022/04/22 11:50:08;;;;;;;13.50;12.15;;;19.20;96.70;;;;;;5018550;28;20189;-86
2022/04/22 11:52:34;;;;;;;11.38;10.27;;;18.80;98.40;;;;;;5018342;28;20193;-87
2022/04/22 11:55:05;;;;;;;11.68;10.57;;;19.20;97.40;;;;;;5018636;28;20213;-86
2022/04/22 11:57:39;;;;;;;12.35;11.05;;;19.40;98.00;;;;;;5019428;28;20181;-86
2022/04/22 12:05:51;;;;;;;11.98;10.88;;;19.80;97.50;;;;;;5039453;28;20169;-87
2022/04/22 12:08:19;;;;;;;11.93;10.80;;;19.80;97.70;;;;;;5022793;28;20173;-87
2022/04/22 12:10:47;;;;;;;11.68;10.55;;;19.50;97.40;;;;;;5022175;28;20230;-86
2022/04/22 12:13:14;;;;;;;12.57;11.38;;;19.60;96.70;;;;;;5022894;28;20201;-87
2022/04/22 12:15:43;;;;;;;13.20;11.80;;;19.10;96.60;;;;;;5022470;28;20669;-86
2022/04/22 12:18:28;;;;;;;11.10;10.00;;;18.70;97.40;;;;;;5022415;28;20188;-87
2022/04/22 12:20:54;;;;;;;10.40;9.40;;;18.80;98.10;;;;;;5022156;28;20646;-87
2022/04/22 12:23:21;;;;;;;11.05;9.70;;;19.10;98.40;;;;;;5037734;28;20174;-87
2022/04/22 12:25:55;;;;;;;12.65;11.45;;;19.50;98.90;;;;;;5022387;28;20188;-86
2022/04/22 12:28:21;;;;;;;11.98;10.85;;;19.70;96.80;;;;;;5038845;28;20173;-87
2022/04/22 12:30:47;;;;;;;12.70;11.40;;;19.40;96.90;;;;;;5038792;28;20178;-87
2022/04/22 12:33:21;;;;;;;10.98;9.88;;;19.50;97.50;;;;;;5022330;28;20185;-87
2022/04/22 12:35:49;;;;;;;11.93;10.75;;;19.60;96.60;;;;;;5038930;28;20166;-87
2022/04/22 12:38:16;;;;;;;11.85;10.68;;;19.80;96.90;;;;;;5022171;28;20264;-86
2022/04/22 12:40:49;;;;;;;13.50;11.32;;;19.60;97.10;;;;;;5022192;28;20256;-87
2022/04/22 12:43:27;;;;;;;11.23;9.60;;;20.00;96.20;;;;;;5023800;28;20177;-87
2022/04/22 12:52:11;;;;;;;10.18;9.27;;;20.10;96.30;;;;;;5038428;28;20177;-87
2022/04/22 12:54:39;;;;;;;10.00;9.10;;;20.20;95.60;;;;;;5021748;28;20194;-87
2022/04/22 12:57:05;;;;;;;11.10;9.90;;;20.10;96.40;;;;;;5021885;28;20177;-87
2022/04/22 12:59:46;;;;;;;9.63;8.63;;;20.20;95.90;;;;;;5037647;28;20174;-87
2022/04/22 13:02:14;;;;;;;9.60;8.70;;;20.30;96.00;;;;;;5021281;28;20209;-87
2022/04/22 13:04:55;;;;;;;11.25;10.10;;;20.50;95.80;;;;;;5021688;28;20197;-87
2022/04/22 13:07:22;;;;;;;9.27;8.38;;;20.70;95.10;;;;;;5020667;28;20184;-87
2022/04/22 13:09:49;;;;;;;8.82;8.05;;;20.70;95.10;;;;;;5037083;28;20202;-87
2022/04/22 13:16:02;;;;;;;9.35;8.32;;;20.90;94.00;;;;;;5056408;28;20193;-87
2022/04/22 13:18:29;;;;;;;9.30;8.20;;;20.90;94.00;;;;;;5021441;28;20186;-87
2022/04/22 13:20:55;;;;;;;8.77;7.90;;;21.20;94.90;;;;;;5021106;28;20648;-87
2022/04/22 13:23:37;;;;;;;10.93;8.68;;;21.50;95.10;;;;;;5021382;28;20178;-87
2022/04/22 13:26:03;;;;;;;10.15;9.05;;;21.70;93.80;;;;;;5021250;28;20174;-87
2022/04/22 13:28:29;;;;;;;9.00;8.20;;;21.20;94.20;;;;;;5021160;28;20264;-87
2022/04/22 13:30:55;;;;;;;12.20;9.15;;;21.50;94.10;;;;;;5021233;28;20217;-87
2022/04/22 13:33:39;;;;;;;10.07;9.02;;;21.30;93.70;;;;;;5021525;28;20182;-87
2022/04/22 13:36:09;;;;;;;8.13;7.32;;;21.40;93.40;;;;;;5021339;28;20177;-87
2022/04/22 13:38:37;;;;;;;8.50;7.70;;;21.80;93.30;;;;;;5037299;28;20182;-87
2022/04/22 13:41:05;;;;;;;8.45;7.68;;;22.00;93.40;;;;;;5037468;28;20205;-87
2022/04/22 13:43:32;;;;;;;8.20;7.47;;;22.40;92.30;;;;;;5020732;28;20198;-87
2022/04/22 13:54:11;;;;;;;8.55;7.63;;;22.30;91.50;;;;;;5037005;28;20210;-87
2022/04/22 13:56:37;;;;;;;6.93;6.20;;;22.20;92.40;;;;;;5037150;28;20193;-87
2022/04/22 13:59:03;;;;;;;9.60;8.75;;;22.30;92.60;;;;;;5020514;28;20647;-87
2022/04/22 14:01:29;;;;;;;12.40;9.18;;;22.10;93.20;;;;;;5036821;28;20324;-87
2022/04/22 14:03:55;;;;;;;8.95;8.05;;;22.30;92.10;;;;;;5036589;28;20198;-86
2022/04/22 14:06:21;;;;;;;9.38;8.48;;;22.50;91.80;;;;;;5020327;28;20270;-87
2022/04/22 14:08:47;;;;;;;9.05;8.25;;;22.70;91.10;;;;;;5036676;28;20178;-87
2022/04/22 14:11:12;;;;;;;8.90;8.00;;;22.60;90.90;;;;;;5020292;28;20184;-84
2022/04/22 14:13:44;;;;;;;9.07;8.27;;;22.90;91.20;;;;;;5020122;28;20197;-85
2022/04/22 14:16:09;;;;;;;8.48;7.68;;;22.80;90.60;;;;;;5020196;28;20262;-85
2022/04/22 14:18:37;;;;;;;7.85;7.10;;;22.80;91.30;;;;;;5020110;28;20698;-84